Terminal Aerodrome Forecast
Issued by NWS Grand Junction, CO

Home | Current Version | Previous Version | Text Only | Print | Product List | Glossary On
Versions: 1 2 3 4 5 6 7 8 9 10 11 12 13 14 15 16 17 18 19 20 21 22 23 24 25 26 27
000
FTUS45 KGJT 241726
TAFGJT
TAF
KGJT 241726Z 2418/2518 VRB03KT P6SM VCSH OVC060
     FM242000 32010KT P6SM VCSH FEW050 BKN080
     FM242300 34007KT P6SM SCT080
     FM250200 06008KT P6SM FEW080
     FM250600 11005KT P6SM SKC
     FM251600 VRB03KT P6SM BKN060=

USA.gov is the U.S. government's official web portal to all federal, state and local government web resources and services.